Terminal Aerodrome Forecast
Issued by NWS Jacksonville, FL

Home | Current Version | Previous Version | Text Only | Print | Product List | Glossary On
Versions: 1 2 3 4 5 6 7 8 9 10 11 12
000
FTUS42 KJAX 281700
TAFSSI
TAF
KSSI 281720Z 2818/2918 19006KT P6SM SCT020 BKN250
     FM282200 16004KT 4SM BR SCT005
     FM290100 19004KT 1SM BR OVC002
     FM291400 22008KT P6SM VCSH BKN015 OVC030=

USA.gov is the U.S. government's official web portal to all federal, state and local government web resources and services.